sensor_id;sensor_type;location;lat;lon;timestamp;pressure;altitude;pressure_sealevel;temperature;humidity
22862;BME280;11598;50.652;6.172;2023-05-22T00:01:14;96373.34;;;12.42;100.00
22862;BME280;11598;50.652;6.172;2023-05-22T00:11:18;96373.34;;;12.42;100.00
22862;BME280;11598;50.652;6.172;2023-05-22T00:21:18;96373.34;;;12.42;100.00
22862;BME280;11598;50.652;6.172;2023-05-22T00:31:19;96356.56;;;12.35;100.00
22862;BME280;11598;50.652;6.172;2023-05-22T00:41:19;96350.72;;;12.22;100.00
22862;BME280;11598;50.652;6.172;2023-05-22T00:51:21;96353.25;;;12.12;100.00
22862;BME280;11598;50.652;6.172;2023-05-22T01:01:23;96346.78;;;12.07;100.00
22862;BME280;11598;50.652;6.172;2023-05-22T01:21:38;96341.47;;;11.97;100.00
22862;BME280;11598;50.652;6.172;2023-05-22T01:31:47;96346.50;;;11.89;100.00
22862;BME280;11598;50.652;6.172;2023-05-22T01:41:49;96347.09;;;11.81;100.00
22862;BME280;11598;50.652;6.172;2023-05-22T01:51:52;96342.00;;;11.79;100.00
22862;BME280;11598;50.652;6.172;2023-05-22T02:01:54;96335.16;;;11.78;100.00
22862;BME280;11598;50.652;6.172;2023-05-22T02:11:54;96337.88;;;11.77;100.00
22862;BME280;11598;50.652;6.172;2023-05-22T02:21:55;96341.41;;;11.87;100.00
22862;BME280;11598;50.652;6.172;2023-05-22T02:31:55;96335.28;;;12.09;100.00
22862;BME280;11598;50.652;6.172;2023-05-22T02:41:56;96342.25;;;12.30;100.00
22862;BME280;11598;50.652;6.172;2023-05-22T02:51:56;96325.47;;;12.43;100.00
22862;BME280;11598;50.652;6.172;2023-05-22T03:01:56;96321.72;;;12.57;100.00
22862;BME280;11598;50.652;6.172;2023-05-22T03:11:57;96324.63;;;12.64;100.00
22862;BME280;11598;50.652;6.172;2023-05-22T03:21:57;96312.84;;;12.69;100.00
22862;BME280;11598;50.652;6.172;2023-05-22T03:31:57;96313.31;;;12.75;100.00
22862;BME280;11598;50.652;6.172;2023-05-22T03:41:58;96316.34;;;12.80;100.00
22862;BME280;11598;50.652;6.172;2023-05-22T03:52:00;96318.69;;;12.83;100.00
22862;BME280;11598;50.652;6.172;2023-05-22T04:02:00;96319.50;;;12.83;100.00
22862;BME280;11598;50.652;6.172;2023-05-22T04:12:01;96304.81;;;12.82;100.00
22862;BME280;11598;50.652;6.172;2023-05-22T04:22:02;96312.66;;;12.82;100.00
22862;BME280;11598;50.652;6.172;2023-05-22T04:32:03;96319.66;;;12.82;100.00
22862;BME280;11598;50.652;6.172;2023-05-22T04:42:05;96327.59;;;12.80;100.00
22862;BME280;11598;50.652;6.172;2023-05-22T04:52:06;96335.03;;;12.85;100.00
22862;BME280;11598;50.652;6.172;2023-05-22T05:02:06;96334.22;;;12.94;100.00
22862;BME280;11598;50.652;6.172;2023-05-22T05:12:06;96333.56;;;13.02;100.00
22862;BME280;11598;50.652;6.172;2023-05-22T05:22:07;96335.38;;;13.11;100.00
22862;BME280;11598;50.652;6.172;2023-05-22T05:32:08;96330.06;;;13.22;100.00
22862;BME280;11598;50.652;6.172;2023-05-22T05:42:10;96342.34;;;13.31;100.00
22862;BME280;11598;50.652;6.172;2023-05-22T05:52:10;96349.88;;;13.35;100.00
22862;BME280;11598;50.652;6.172;2023-05-22T06:02:11;96365.84;;;13.41;100.00
22862;BME280;11598;50.652;6.172;2023-05-22T06:12:11;96369.97;;;13.44;100.00
22862;BME280;11598;50.652;6.172;2023-05-22T06:22:12;96374.69;;;13.60;100.00
22862;BME280;11598;50.652;6.172;2023-05-22T06:32:12;96374.16;;;13.85;100.00
22862;BME280;11598;50.652;6.172;2023-05-22T06:42:12;96378.16;;;14.09;100.00
22862;BME280;11598;50.652;6.172;2023-05-22T06:52:13;96383.66;;;14.25;100.00
22862;BME280;11598;50.652;6.172;2023-05-22T07:02:14;96391.88;;;14.40;100.00
22862;BME280;11598;50.652;6.172;2023-05-22T07:12:14;96401.13;;;14.54;100.00
22862;BME280;11598;50.652;6.172;2023-05-22T07:22:15;96407.81;;;14.76;100.00
22862;BME280;11598;50.652;6.172;2023-05-22T07:32:15;96417.97;;;14.79;100.00
22862;BME280;11598;50.652;6.172;2023-05-22T07:42:15;96412.84;;;14.97;100.00
22862;BME280;11598;50.652;6.172;2023-05-22T07:52:16;96411.78;;;15.27;100.00
22862;BME280;11598;50.652;6.172;2023-05-22T08:02:17;96419.47;;;15.56;100.00
22862;BME280;11598;50.652;6.172;2023-05-22T08:12:17;96424.22;;;15.98;100.00
22862;BME280;11598;50.652;6.172;2023-05-22T08:22:18;96424.06;;;16.18;100.00
22862;BME280;11598;50.652;6.172;2023-05-22T08:32:18;96436.69;;;16.32;100.00
22862;BME280;11598;50.652;6.172;2023-05-22T08:42:19;96435.88;;;16.94;100.00
22862;BME280;11598;50.652;6.172;2023-05-22T08:52:27;96446.81;;;16.89;100.00
22862;BME280;11598;50.652;6.172;2023-05-22T09:02:30;96449.44;;;16.71;100.00
22862;BME280;11598;50.652;6.172;2023-05-22T09:12:31;96461.22;;;16.85;99.80
22862;BME280;11598;50.652;6.172;2023-05-22T09:22:36;96456.09;;;17.01;97.78
22862;BME280;11598;50.652;6.172;2023-05-22T09:32:40;96465.69;;;16.93;97.18
22862;BME280;11598;50.652;6.172;2023-05-22T09:42:43;96468.63;;;16.89;96.43
22862;BME280;11598;50.652;6.172;2023-05-22T09:52:47;96463.69;;;16.68;97.20
22862;BME280;11598;50.652;6.172;2023-05-22T10:02:56;96464.50;;;16.69;96.99
22862;BME280;11598;50.652;6.172;2023-05-22T10:13:03;96474.78;;;16.80;96.90
22862;BME280;11598;50.652;6.172;2023-05-22T10:23:04;96483.09;;;16.76;96.44
22862;BME280;11598;50.652;6.172;2023-05-22T10:33:16;96478.53;;;16.78;96.26
22862;BME280;11598;50.652;6.172;2023-05-22T10:43:20;96479.84;;;17.00;95.51
22862;BME280;11598;50.652;6.172;2023-05-22T10:53:30;96466.72;;;17.00;94.80
22862;BME280;11598;50.652;6.172;2023-05-22T11:03:53;96455.09;;;17.97;94.16
22862;BME280;11598;50.652;6.172;2023-05-22T11:14:00;96448.41;;;18.44;91.66
22862;BME280;11598;50.652;6.172;2023-05-22T11:24:06;96458.94;;;18.68;90.07
22862;BME280;11598;50.652;6.172;2023-05-22T11:34:07;96452.56;;;18.87;88.40
22862;BME280;11598;50.652;6.172;2023-05-22T11:44:08;96461.59;;;18.76;88.26
22862;BME280;11598;50.652;6.172;2023-05-22T11:54:09;96446.94;;;18.57;89.33
22862;BME280;11598;50.652;6.172;2023-05-22T12:04:09;96459.31;;;18.82;87.96
22862;BME280;11598;50.652;6.172;2023-05-22T12:14:10;96461.28;;;18.79;88.17
22862;BME280;11598;50.652;6.172;2023-05-22T12:24:10;96461.94;;;18.98;87.02
22862;BME280;11598;50.652;6.172;2023-05-22T12:34:11;96458.94;;;18.93;88.13
22862;BME280;11598;50.652;6.172;2023-05-22T12:44:14;96450.25;;;19.00;86.95
22862;BME280;11598;50.652;6.172;2023-05-22T12:54:14;96451.03;;;19.09;87.67
22862;BME280;11598;50.652;6.172;2023-05-22T13:04:15;96441.97;;;19.20;86.99
22862;BME280;11598;50.652;6.172;2023-05-22T13:14:15;96443.75;;;19.36;86.49
22862;BME280;11598;50.652;6.172;2023-05-22T13:24:15;96445.41;;;19.29;85.99
22862;BME280;11598;50.652;6.172;2023-05-22T13:34:16;96447.22;;;19.12;86.38
22862;BME280;11598;50.652;6.172;2023-05-22T13:44:16;96442.19;;;18.86;87.17
22862;BME280;11598;50.652;6.172;2023-05-22T13:54:17;96451.41;;;18.90;87.11
22862;BME280;11598;50.652;6.172;2023-05-22T14:04:17;96464.41;;;18.91;86.43
22862;BME280;11598;50.652;6.172;2023-05-22T14:14:18;96460.63;;;18.77;87.21
22862;BME280;11598;50.652;6.172;2023-05-22T14:24:22;96454.66;;;18.75;87.00
22862;BME280;11598;50.652;6.172;2023-05-22T14:34:23;96456.03;;;18.79;87.23
22862;BME280;11598;50.652;6.172;2023-05-22T14:44:23;96464.03;;;18.62;87.48
22862;BME280;11598;50.652;6.172;2023-05-22T14:54:23;96464.50;;;18.16;89.07
22862;BME280;11598;50.652;6.172;2023-05-22T15:04:24;96468.75;;;17.66;90.90
22862;BME280;11598;50.652;6.172;2023-05-22T15:14:24;96469.44;;;17.16;91.59
22862;BME280;11598;50.652;6.172;2023-05-22T15:24:24;96469.69;;;16.79;93.06
22862;BME280;11598;50.652;6.172;2023-05-22T15:34:25;96462.81;;;17.04;94.96
22862;BME280;11598;50.652;6.172;2023-05-22T15:44:25;96456.22;;;17.26;94.68
22862;BME280;11598;50.652;6.172;2023-05-22T15:54:25;96444.19;;;17.49;93.69
22862;BME280;11598;50.652;6.172;2023-05-22T16:04:26;96446.38;;;17.62;93.11
22862;BME280;11598;50.652;6.172;2023-05-22T16:14:26;96434.59;;;17.74;93.31
22862;BME280;11598;50.652;6.172;2023-05-22T16:24:27;96431.97;;;17.66;93.63
22862;BME280;11598;50.652;6.172;2023-05-22T16:34:27;96451.44;;;17.56;93.29
22862;BME280;11598;50.652;6.172;2023-05-22T16:44:28;96459.66;;;17.52;93.23
22862;BME280;11598;50.652;6.172;2023-05-22T16:54:29;96468.63;;;17.42;93.31
22862;BME280;11598;50.652;6.172;2023-05-22T17:04:29;96469.41;;;17.34;94.19
22862;BME280;11598;50.652;6.172;2023-05-22T17:14:30;96473.22;;;17.14;95.64
22862;BME280;11598;50.652;6.172;2023-05-22T17:24:32;96481.97;;;16.78;96.48
22862;BME280;11598;50.652;6.172;2023-05-22T17:34:33;96492.41;;;16.52;97.40
22862;BME280;11598;50.652;6.172;2023-05-22T17:44:33;96490.00;;;16.41;98.88
22862;BME280;11598;50.652;6.172;2023-05-22T17:54:34;96512.03;;;16.30;99.74
22862;BME280;11598;50.652;6.172;2023-05-22T18:04:35;96519.19;;;16.10;100.00
22862;BME280;11598;50.652;6.172;2023-05-22T18:14:35;96504.09;;;15.94;100.00
22862;BME280;11598;50.652;6.172;2023-05-22T18:24:36;96516.00;;;15.89;100.00
22862;BME280;11598;50.652;6.172;2023-05-22T18:34:37;96512.88;;;15.75;100.00
22862;BME280;11598;50.652;6.172;2023-05-22T18:44:37;96514.13;;;15.61;100.00
22862;BME280;11598;50.652;6.172;2023-05-22T18:54:38;96517.09;;;15.49;100.00
22862;BME280;11598;50.652;6.172;2023-05-22T19:04:38;96540.81;;;15.37;100.00
22862;BME280;11598;50.652;6.172;2023-05-22T19:14:38;96554.75;;;15.28;100.00
22862;BME280;11598;50.652;6.172;2023-05-22T19:24:39;96553.66;;;15.21;100.00
22862;BME280;11598;50.652;6.172;2023-05-22T19:34:39;96565.53;;;15.15;100.00
22862;BME280;11598;50.652;6.172;2023-05-22T19:44:40;96582.75;;;15.08;100.00
22862;BME280;11598;50.652;6.172;2023-05-22T19:54:40;96589.50;;;15.01;100.00
22862;BME280;11598;50.652;6.172;2023-05-22T20:04:41;96585.63;;;14.95;100.00
22862;BME280;11598;50.652;6.172;2023-05-22T20:14:42;96602.59;;;14.82;100.00
22862;BME280;11598;50.652;6.172;2023-05-22T20:24:42;96614.97;;;14.70;100.00
22862;BME280;11598;50.652;6.172;2023-05-22T20:34:43;96607.66;;;14.64;100.00
22862;BME280;11598;50.652;6.172;2023-05-22T20:44:44;96619.34;;;14.59;100.00
22862;BME280;11598;50.652;6.172;2023-05-22T20:54:45;96619.28;;;14.50;100.00
22862;BME280;11598;50.652;6.172;2023-05-22T21:04:45;96626.28;;;14.40;100.00
22862;BME280;11598;50.652;6.172;2023-05-22T21:14:46;96636.03;;;14.28;100.00
22862;BME280;11598;50.652;6.172;2023-05-22T21:24:46;96637.66;;;14.19;100.00
22862;BME280;11598;50.652;6.172;2023-05-22T21:34:47;96635.69;;;14.11;100.00
22862;BME280;11598;50.652;6.172;2023-05-22T21:44:47;96645.25;;;14.01;100.00
22862;BME280;11598;50.652;6.172;2023-05-22T21:54:47;96648.53;;;13.93;100.00
22862;BME280;11598;50.652;6.172;2023-05-22T22:04:48;96654.41;;;13.86;100.00
22862;BME280;11598;50.652;6.172;2023-05-22T22:14:48;96654.09;;;13.79;100.00
22862;BME280;11598;50.652;6.172;2023-05-22T22:24:48;96653.09;;;13.70;100.00
22862;BME280;11598;50.652;6.172;2023-05-22T22:34:49;96665.69;;;13.65;100.00
22862;BME280;11598;50.652;6.172;2023-05-22T22:44:52;96664.44;;;13.60;100.00
22862;BME280;11598;50.652;6.172;2023-05-22T22:54:53;96677.88;;;13.55;100.00
22862;BME280;11598;50.652;6.172;2023-05-22T23:04:53;96686.19;;;13.49;100.00
22862;BME280;11598;50.652;6.172;2023-05-22T23:14:53;96681.25;;;13.46;100.00
22862;BME280;11598;50.652;6.172;2023-05-22T23:24:54;96685.03;;;13.42;100.00
22862;BME280;11598;50.652;6.172;2023-05-22T23:34:55;96690.75;;;13.36;100.00
22862;BME280;11598;50.652;6.172;2023-05-22T23:44:55;96689.50;;;13.30;100.00
22862;BME280;11598;50.652;6.172;2023-05-22T23:54:56;96701.34;;;13.23;100.00
